Time;durP1;ratioP1;P1;durP2;ratioP2;P2;SDS_P1;SDS_P2;PMS_P1;PMS_P2;Temp;Humidity;BMP_temperature;BMP_pressure;BME280_temperature;BME280_humidity;BME280_pressure;Samples;Min_cycle;Max_cycle;Signal;HPM_P1;HPM_P2
2021/03/19 00:02:57;;;;;;;37.80;21.20;;;22.70;26.30;;;;;;6231698;28;83458;-69
2021/03/19 00:05:58;;;;;;;35.03;20.30;;;22.70;26.40;;;;;;6229629;27;84212;-69
2021/03/19 00:08:59;;;;;;;41.55;21.88;;;22.70;26.70;;;;;;6238631;28;83483;-69
2021/03/19 00:11:59;;;;;;;40.53;20.88;;;22.70;26.50;;;;;;6215322;28;86022;-69
2021/03/19 00:15:00;;;;;;;42.85;21.65;;;22.70;26.60;;;;;;6233556;28;82794;-69
2021/03/19 00:18:00;;;;;;;40.30;21.42;;;22.70;26.80;;;;;;6229322;28;83286;-69
2021/03/19 00:21:01;;;;;;;37.78;20.23;;;22.70;26.60;;;;;;6233426;28;84271;-69
2021/03/19 00:24:01;;;;;;;41.13;21.52;;;22.70;26.70;;;;;;6241165;28;83742;-69
2021/03/19 00:27:02;;;;;;;39.63;22.02;;;22.70;26.90;;;;;;6231592;28;83017;-69
2021/03/19 00:30:03;;;;;;;40.38;22.30;;;22.70;26.70;;;;;;6230128;28;83633;-69
2021/03/19 00:33:03;;;;;;;39.75;21.00;;;22.70;26.80;;;;;;6229446;28;84573;-69
2021/03/19 00:36:04;;;;;;;36.35;20.05;;;22.70;26.90;;;;;;6235794;28;83165;-69
2021/03/19 00:39:04;;;;;;;38.30;20.33;;;22.70;27.00;;;;;;6216699;28;85671;-71
2021/03/19 00:42:05;;;;;;;41.47;20.73;;;22.70;27.00;;;;;;6233361;28;82968;-71
2021/03/19 00:45:05;;;;;;;39.00;20.23;;;22.70;27.00;;;;;;6222379;28;85091;-68
2021/03/19 00:48:06;;;;;;;41.15;21.48;;;22.70;27.10;;;;;;6238904;28;92058;-68
2021/03/19 00:51:06;;;;;;;42.72;22.55;;;22.60;26.90;;;;;;6234589;28;83421;-68
2021/03/19 00:54:07;;;;;;;38.33;20.73;;;22.60;27.00;;;;;;6240730;27;83138;-68
2021/03/19 00:57:07;;;;;;;41.53;22.25;;;22.60;26.90;;;;;;6243154;28;88892;-67
2021/03/19 01:00:08;;;;;;;39.97;22.35;;;22.70;26.80;;;;;;6238517;28;83012;-68
2021/03/19 01:03:10;;;;;;;41.17;22.38;;;22.60;26.70;;;;;;6235391;28;85111;-68
2021/03/19 01:06:11;;;;;;;37.97;22.35;;;22.60;26.60;;;;;;6234871;28;83760;-67
2021/03/19 01:09:11;;;;;;;44.13;22.63;;;22.60;26.60;;;;;;6236343;28;83676;-70
2021/03/19 01:12:13;;;;;;;39.75;22.30;;;22.70;26.60;;;;;;6236656;28;83573;-71
2021/03/19 01:15:13;;;;;;;41.30;22.02;;;22.60;26.50;;;;;;6230747;28;83623;-67
2021/03/19 01:18:14;;;;;;;38.88;21.98;;;22.60;26.60;;;;;;6221527;28;84802;-67
2021/03/19 01:21:14;;;;;;;46.88;24.02;;;22.60;26.50;;;;;;6243764;28;83062;-69
2021/03/19 01:24:15;;;;;;;52.75;24.95;;;22.60;26.70;;;;;;6241188;28;83389;-68
2021/03/19 01:27:15;;;;;;;45.72;23.88;;;22.60;26.80;;;;;;6241801;28;83739;-67
2021/03/19 01:30:16;;;;;;;43.15;23.55;;;22.60;26.60;;;;;;6237743;28;85522;-70
2021/03/19 01:33:16;;;;;;;43.45;22.95;;;22.60;26.50;;;;;;6237336;28;83333;-68
2021/03/19 01:36:17;;;;;;;46.83;22.73;;;22.60;26.60;;;;;;6214356;28;83143;-69
2021/03/19 01:39:17;;;;;;;48.47;24.83;;;22.60;26.60;;;;;;6233594;27;84150;-68
2021/03/19 01:42:18;;;;;;;46.15;25.08;;;22.60;26.40;;;;;;6236411;28;83396;-68
2021/03/19 01:45:19;;;;;;;43.60;23.65;;;22.60;26.40;;;;;;6238318;28;83284;-67
2021/03/19 01:48:19;;;;;;;43.15;24.45;;;22.60;26.50;;;;;;6216813;28;83183;-67
2021/03/19 01:51:20;;;;;;;48.10;22.90;;;22.60;26.50;;;;;;6233640;28;82913;-67
2021/03/19 01:54:20;;;;;;;45.97;24.45;;;22.60;26.60;;;;;;6214856;28;85974;-69
2021/03/19 01:57:21;;;;;;;46.88;24.52;;;22.50;26.50;;;;;;6238739;28;83893;-67
2021/03/19 02:00:22;;;;;;;49.13;23.70;;;22.50;26.50;;;;;;6233126;27;85632;-67
2021/03/19 02:03:22;;;;;;;45.15;23.75;;;22.50;26.50;;;;;;6235037;28;83789;-69
2021/03/19 02:06:23;;;;;;;48.53;24.63;;;22.50;26.40;;;;;;6237564;27;83713;-68
2021/03/19 02:09:23;;;;;;;50.58;25.52;;;22.50;26.50;;;;;;6236217;27;83319;-69
2021/03/19 02:12:24;;;;;;;53.28;25.17;;;22.50;26.50;;;;;;6241657;28;84155;-68
2021/03/19 02:15:24;;;;;;;51.03;26.67;;;22.60;26.60;;;;;;6248468;28;83423;-68
2021/03/19 02:18:25;;;;;;;44.65;24.73;;;22.50;26.50;;;;;;6247072;28;83394;-68
2021/03/19 02:21:25;;;;;;;52.15;26.25;;;22.50;26.50;;;;;;6236801;28;83977;-68
2021/03/19 02:24:26;;;;;;;51.78;26.88;;;22.60;26.80;;;;;;6233995;28;83224;-69
2021/03/19 02:27:26;;;;;;;52.55;26.85;;;22.50;26.50;;;;;;6237275;28;83511;-69
2021/03/19 02:30:27;;;;;;;53.03;26.50;;;22.50;26.50;;;;;;6234200;28;88829;-69
2021/03/19 02:33:28;;;;;;;49.92;25.80;;;22.50;26.50;;;;;;6237695;28;85976;-69
2021/03/19 02:36:28;;;;;;;56.10;28.70;;;22.50;26.50;;;;;;6222461;27;83321;-69
2021/03/19 02:39:29;;;;;;;53.70;27.48;;;22.50;26.30;;;;;;6242656;28;84264;-69
2021/03/19 02:42:29;;;;;;;51.60;28.30;;;22.50;26.40;;;;;;6238376;27;83319;-69
2021/03/19 02:45:30;;;;;;;51.67;27.88;;;22.50;26.40;;;;;;6244900;28;83571;-69
2021/03/19 02:48:30;;;;;;;54.80;27.98;;;22.50;26.40;;;;;;6216983;28;83086;-69
2021/03/19 02:51:31;;;;;;;54.83;27.98;;;22.50;26.30;;;;;;6237627;28;87322;-69
2021/03/19 02:54:31;;;;;;;56.05;27.88;;;22.40;26.30;;;;;;6237450;28;83462;-68
2021/03/19 02:57:32;;;;;;;51.88;27.25;;;22.40;26.30;;;;;;6242072;28;83208;-69
2021/03/19 03:00:32;;;;;;;53.08;28.30;;;22.50;26.40;;;;;;6245291;28;83475;-69
2021/03/19 03:03:33;;;;;;;55.63;28.80;;;22.50;26.40;;;;;;6231520;28;83185;-68
2021/03/19 03:06:34;;;;;;;55.47;27.73;;;22.40;26.40;;;;;;6234332;28;84301;-68
2021/03/19 03:09:34;;;;;;;49.53;27.60;;;22.50;26.30;;;;;;6240522;28;84205;-68
2021/03/19 03:12:35;;;;;;;53.75;28.38;;;22.50;26.50;;;;;;6246167;28;83384;-70
2021/03/19 03:15:35;;;;;;;51.97;28.17;;;22.40;26.40;;;;;;6239984;28;83969;-67
2021/03/19 03:18:36;;;;;;;56.92;29.52;;;22.40;26.40;;;;;;6237811;27;85515;-68
2021/03/19 03:21:36;;;;;;;54.03;29.65;;;22.40;26.40;;;;;;6237356;28;83238;-69
2021/03/19 03:24:37;;;;;;;54.67;28.40;;;22.50;26.60;;;;;;6244607;27;83361;-67
2021/03/19 03:27:38;;;;;;;49.75;27.13;;;22.50;26.60;;;;;;6240658;28;83315;-69
2021/03/19 03:30:38;;;;;;;51.42;27.77;;;22.40;26.70;;;;;;6242308;28;83377;-67
2021/03/19 03:33:39;;;;;;;53.22;28.70;;;22.50;26.90;;;;;;6246077;28;83607;-70
2021/03/19 03:36:39;;;;;;;50.38;28.17;;;22.50;27.00;;;;;;6238128;28;83629;-70
2021/03/19 03:39:40;;;;;;;47.28;25.95;;;22.50;27.10;;;;;;6236055;27;83984;-70
2021/03/19 03:42:40;;;;;;;50.10;25.85;;;22.50;27.10;;;;;;6242144;27;82960;-70
2021/03/19 03:45:41;;;;;;;49.15;26.80;;;22.40;27.10;;;;;;6246079;28;84712;-69
2021/03/19 03:48:41;;;;;;;51.78;28.25;;;22.40;27.10;;;;;;6244956;28;84022;-70
2021/03/19 03:51:42;;;;;;;49.47;26.88;;;22.40;27.00;;;;;;6238722;28;85311;-69
2021/03/19 03:54:42;;;;;;;48.78;26.80;;;22.40;27.00;;;;;;6242481;28;83253;-71
2021/03/19 03:57:43;;;;;;;50.95;27.02;;;22.40;27.00;;;;;;6224585;28;84173;-69
2021/03/19 04:00:43;;;;;;;51.78;27.25;;;22.40;27.00;;;;;;6236974;28;83386;-70
2021/03/19 04:03:44;;;;;;;50.03;27.45;;;22.40;27.00;;;;;;6233233;28;83414;-72
2021/03/19 04:06:44;;;;;;;48.60;26.95;;;22.40;26.90;;;;;;6239721;28;83260;-72
2021/03/19 04:09:45;;;;;;;47.47;25.30;;;22.40;26.90;;;;;;6245908;28;85605;-69
2021/03/19 04:12:45;;;;;;;50.42;25.73;;;22.40;26.90;;;;;;6237746;28;83453;-70
2021/03/19 04:15:48;;;;;;;48.70;26.05;;;22.40;27.30;;;;;;6242055;28;83715;-71
2021/03/19 04:18:49;;;;;;;46.55;25.48;;;22.40;27.10;;;;;;6235831;28;83475;-69
2021/03/19 04:21:49;;;;;;;52.10;26.60;;;22.50;27.00;;;;;;6239621;28;83537;-69
2021/03/19 04:24:50;;;;;;;51.65;28.13;;;22.50;26.50;;;;;;6232793;28;83097;-69
2021/03/19 04:27:50;;;;;;;50.78;27.75;;;22.50;26.30;;;;;;6240503;27;83375;-72
2021/03/19 04:30:51;;;;;;;55.05;28.77;;;22.60;26.30;;;;;;6243563;27;83564;-70
2021/03/19 04:33:51;;;;;;;49.47;27.33;;;22.60;26.20;;;;;;6243805;28;83430;-69
2021/03/19 04:36:52;;;;;;;53.05;28.85;;;22.60;26.70;;;;;;6222846;28;86320;-68
2021/03/19 04:39:53;;;;;;;55.63;28.55;;;22.60;26.60;;;;;;6251093;28;84701;-69
2021/03/19 04:42:53;;;;;;;56.47;28.35;;;22.70;26.40;;;;;;6245321;27;84632;-68
2021/03/19 04:45:54;;;;;;;54.30;28.65;;;22.70;26.40;;;;;;6243727;28;82940;-69
2021/03/19 04:48:55;;;;;;;55.97;30.17;;;22.70;26.20;;;;;;6234261;27;84270;-69
2021/03/19 04:51:55;;;;;;;56.75;30.50;;;22.80;26.10;;;;;;6246206;28;82974;-69
2021/03/19 04:54:56;;;;;;;54.17;29.17;;;22.80;25.90;;;;;;6236460;28;83885;-68
2021/03/19 04:57:57;;;;;;;56.03;30.00;;;22.80;25.80;;;;;;6246795;28;85207;-69
2021/03/19 05:00:57;;;;;;;53.90;29.73;;;22.80;25.70;;;;;;6238002;27;84014;-69
2021/03/19 05:03:58;;;;;;;55.33;30.45;;;22.80;25.70;;;;;;6236283;28;86621;-69
2021/03/19 05:07:00;;;;;;;59.58;31.65;;;22.80;25.60;;;;;;6237572;28;84054;-65
2021/03/19 05:10:01;;;;;;;56.03;31.05;;;22.90;25.70;;;;;;6218886;28;83954;-67
2021/03/19 05:13:02;;;;;;;56.60;30.48;;;22.90;25.70;;;;;;6240570;28;83401;-66
2021/03/19 05:16:02;;;;;;;56.40;29.67;;;22.90;26.00;;;;;;6230374;28;84188;-68
2021/03/19 05:19:03;;;;;;;43.63;25.05;;;23.00;26.80;;;;;;6245732;28;83225;-70
2021/03/19 05:22:03;;;;;;;42.13;21.52;;;22.90;27.50;;;;;;6218413;28;85772;-71
2021/03/19 05:25:04;;;;;;;30.70;18.17;;;22.90;28.80;;;;;;6242972;28;83314;-68
2021/03/19 05:28:04;;;;;;;31.20;16.95;;;22.80;29.40;;;;;;6245659;27;84736;-69
2021/03/19 05:31:05;;;;;;;29.10;16.15;;;22.80;29.70;;;;;;6245735;28;83227;-68
2021/03/19 05:34:05;;;;;;;24.77;14.45;;;22.80;30.30;;;;;;6249648;28;83454;-71
2021/03/19 05:37:06;;;;;;;26.90;15.50;;;22.80;30.80;;;;;;6230889;28;84313;-70
2021/03/19 05:40:06;;;;;;;25.08;14.98;;;22.80;31.60;;;;;;6230775;28;83184;-69
2021/03/19 05:43:07;;;;;;;27.02;14.65;;;22.80;32.00;;;;;;6242741;28;82972;-69
2021/03/19 05:46:07;;;;;;;26.55;15.00;;;22.70;32.60;;;;;;6248385;28;83733;-68
2021/03/19 05:49:08;;;;;;;25.48;14.13;;;22.70;32.70;;;;;;6239569;28;83173;-69
2021/03/19 05:52:09;;;;;;;23.88;13.48;;;22.80;33.60;;;;;;6243053;28;83290;-69
2021/03/19 05:55:09;;;;;;;25.27;14.52;;;22.80;34.20;;;;;;6237005;28;83383;-69
2021/03/19 05:58:10;;;;;;;27.45;14.00;;;22.80;33.80;;;;;;6246941;28;82983;-68
2021/03/19 06:01:10;;;;;;;27.20;14.65;;;22.80;34.80;;;;;;6232688;28;83805;-67
2021/03/19 06:04:11;;;;;;;27.80;15.43;;;22.80;35.10;;;;;;6245115;28;83223;-67
2021/03/19 06:07:11;;;;;;;28.02;15.35;;;22.80;35.40;;;;;;6238708;28;83124;-68
2021/03/19 06:10:12;;;;;;;26.60;14.63;;;22.80;35.40;;;;;;6243029;28;83456;-67
2021/03/19 06:13:12;;;;;;;29.02;14.98;;;22.80;35.50;;;;;;6244897;28;83865;-67
2021/03/19 06:16:13;;;;;;;30.08;14.90;;;22.80;35.20;;;;;;6222946;28;84206;-68
2021/03/19 06:19:14;;;;;;;28.65;17.05;;;22.80;35.20;;;;;;6222014;28;84092;-68
2021/03/19 06:22:14;;;;;;;28.88;15.05;;;22.90;35.10;;;;;;6238935;27;91322;-68
2021/03/19 06:25:15;;;;;;;27.50;15.68;;;22.90;35.00;;;;;;6244696;28;83139;-69
2021/03/19 06:28:15;;;;;;;26.30;15.57;;;22.90;34.90;;;;;;6243453;28;86388;-67
2021/03/19 06:31:16;;;;;;;27.33;16.15;;;22.90;34.80;;;;;;6235743;28;83764;-67
2021/03/19 06:34:18;;;;;;;23.70;14.15;;;22.90;34.80;;;;;;6236188;28;84001;-66
2021/03/19 06:37:18;;;;;;;30.20;15.38;;;22.90;34.60;;;;;;6204557;28;85872;-69
2021/03/19 06:40:19;;;;;;;35.15;15.70;;;22.90;35.30;;;;;;6239851;27;91118;-70
2021/03/19 06:43:20;;;;;;;23.98;13.23;;;22.90;35.40;;;;;;6241849;28;83223;-69
2021/03/19 06:46:20;;;;;;;30.23;15.05;;;22.90;35.60;;;;;;6237467;28;83202;-70
2021/03/19 06:49:21;;;;;;;28.45;14.52;;;22.90;36.20;;;;;;6231663;28;84366;-66
2021/03/19 06:52:21;;;;;;;32.50;15.68;;;22.90;35.90;;;;;;6221448;28;85948;-69
2021/03/19 06:55:22;;;;;;;28.80;16.13;;;22.90;35.80;;;;;;6240647;28;83868;-68
2021/03/19 06:58:22;;;;;;;24.75;15.15;;;22.80;35.80;;;;;;6232064;28;83965;-69
2021/03/19 07:01:23;;;;;;;25.58;14.30;;;22.80;35.80;;;;;;6241178;28;83746;-69
2021/03/19 07:04:23;;;;;;;27.88;15.05;;;22.80;36.10;;;;;;6244365;28;82991;-69
2021/03/19 07:07:24;;;;;;;26.75;15.23;;;22.80;36.50;;;;;;6239716;27;86466;-69
2021/03/19 07:10:26;;;;;;;29.15;15.85;;;22.80;36.30;;;;;;6242729;28;84057;-68
2021/03/19 07:13:26;;;;;;;28.20;14.98;;;22.80;36.70;;;;;;6220058;28;83154;-68
2021/03/19 07:16:27;;;;;;;25.38;14.93;;;22.70;36.30;;;;;;6241562;28;84446;-68
2021/03/19 07:19:27;;;;;;;27.25;15.30;;;22.80;36.90;;;;;;6235757;28;83984;-69
2021/03/19 07:22:28;;;;;;;25.63;14.07;;;22.70;36.30;;;;;;6223995;28;86040;-68
2021/03/19 07:25:28;;;;;;;25.90;14.27;;;22.70;37.20;;;;;;6240945;28;84630;-67
2021/03/19 07:28:29;;;;;;;22.17;12.80;;;22.70;36.70;;;;;;6235987;28;83977;-68
2021/03/19 07:31:29;;;;;;;25.30;14.07;;;22.70;36.80;;;;;;6221192;28;83357;-68
2021/03/19 07:34:32;;;;;;;22.33;13.82;;;22.70;37.30;;;;;;6236509;28;83178;-68
2021/03/19 07:37:32;;;;;;;24.35;13.68;;;22.70;37.20;;;;;;6207746;28;83510;-72
2021/03/19 07:40:33;;;;;;;23.40;12.75;;;22.70;37.00;;;;;;6226681;28;84128;-69
2021/03/19 07:43:33;;;;;;;24.88;14.45;;;22.70;36.40;;;;;;6240251;28;83551;-70
2021/03/19 07:46:34;;;;;;;22.02;12.80;;;22.70;36.80;;;;;;6247779;27;86341;-69
2021/03/19 07:49:34;;;;;;;23.70;13.25;;;22.70;36.70;;;;;;6239540;28;84022;-68
2021/03/19 07:52:35;;;;;;;23.35;12.98;;;22.70;37.00;;;;;;6229216;28;83313;-69
2021/03/19 07:55:35;;;;;;;22.92;12.82;;;22.70;36.70;;;;;;6241771;28;83478;-68
2021/03/19 07:58:36;;;;;;;24.15;13.05;;;22.70;37.20;;;;;;6243137;28;84786;-65
2021/03/19 08:01:37;;;;;;;18.55;11.15;;;22.70;36.90;;;;;;6233641;28;85868;-66
2021/03/19 08:04:37;;;;;;;22.23;11.05;;;22.70;37.00;;;;;;6244633;27;83997;-70
2021/03/19 08:07:38;;;;;;;21.08;11.45;;;22.70;37.20;;;;;;6234699;28;83543;-71
2021/03/19 08:10:38;;;;;;;18.30;10.52;;;22.60;36.70;;;;;;6235862;28;83610;-70
2021/03/19 08:13:39;;;;;;;24.13;11.95;;;22.60;36.10;;;;;;6246848;28;84027;-73
2021/03/19 08:16:39;;;;;;;22.35;10.88;;;22.70;36.20;;;;;;6212243;28;84108;-72
2021/03/19 08:19:40;;;;;;;17.02;9.52;;;22.70;36.80;;;;;;6214189;27;84517;-71
2021/03/19 08:22:40;;;;;;;20.92;10.45;;;22.70;37.10;;;;;;6239122;27;84364;-71
2021/03/19 08:25:41;;;;;;;17.58;10.27;;;22.70;36.90;;;;;;6230906;28;83450;-71
2021/03/19 08:28:41;;;;;;;18.58;9.73;;;22.60;36.90;;;;;;6247027;28;83617;-71
2021/03/19 08:31:42;;;;;;;18.25;8.77;;;22.60;37.00;;;;;;6248479;27;81607;-71
2021/03/19 08:34:42;;;;;;;13.40;8.52;;;22.60;36.80;;;;;;6244811;28;83712;-70
2021/03/19 08:37:43;;;;;;;18.00;8.57;;;22.60;36.90;;;;;;6237638;28;81749;-70
2021/03/19 08:40:44;;;;;;;13.50;7.43;;;22.60;37.10;;;;;;6248021;28;80946;-69
2021/03/19 08:43:44;;;;;;;13.80;8.73;;;22.60;36.50;;;;;;6244954;28;80913;-67
2021/03/19 08:46:45;;;;;;;14.27;7.63;;;22.60;36.50;;;;;;6250512;28;80384;-68
2021/03/19 08:49:45;;;;;;;13.18;7.22;;;22.60;36.90;;;;;;6245260;27;80746;-69
2021/03/19 08:52:46;;;;;;;11.00;6.85;;;22.70;37.00;;;;;;6247796;28;81354;-68
2021/03/19 08:55:46;;;;;;;11.57;6.68;;;22.70;36.20;;;;;;6245807;28;80795;-69
2021/03/19 08:58:47;;;;;;;11.70;6.82;;;22.70;36.30;;;;;;6235644;28;80450;-69
2021/03/19 09:01:48;;;;;;;11.63;5.88;;;22.70;36.70;;;;;;6251306;28;82235;-68
2021/03/19 09:04:48;;;;;;;12.75;6.32;;;22.80;36.90;;;;;;6245483;28;80463;-69
2021/03/19 09:07:49;;;;;;;12.75;6.00;;;22.70;37.00;;;;;;6245871;28;81971;-70
2021/03/19 09:10:50;;;;;;;11.05;6.50;;;22.80;36.90;;;;;;6245477;28;81510;-68
2021/03/19 09:13:50;;;;;;;12.18;6.88;;;22.80;37.00;;;;;;6247267;28;81314;-69
2021/03/19 09:16:51;;;;;;;13.02;6.10;;;22.80;37.00;;;;;;6250084;28;80404;-74
2021/03/19 09:19:51;;;;;;;12.43;6.63;;;22.80;37.00;;;;;;6239510;28;81275;-70
2021/03/19 09:22:52;;;;;;;12.23;6.90;;;22.90;36.80;;;;;;6240698;28;80267;-70
2021/03/19 09:25:53;;;;;;;11.75;6.60;;;22.90;36.70;;;;;;6223419;28;80733;-69
2021/03/19 09:28:54;;;;;;;11.05;5.82;;;22.90;36.40;;;;;;6241988;28;81727;-68
2021/03/19 09:31:54;;;;;;;14.52;6.93;;;22.80;36.70;;;;;;6246288;27;81767;-69
2021/03/19 09:34:55;;;;;;;12.32;6.88;;;22.90;36.60;;;;;;6245669;28;80793;-68
2021/03/19 09:37:55;;;;;;;14.57;8.18;;;22.90;36.40;;;;;;6246875;27;81344;-67
2021/03/19 09:40:56;;;;;;;12.52;7.20;;;22.90;35.50;;;;;;6246390;27;81385;-67
2021/03/19 09:43:56;;;;;;;13.75;6.85;;;22.90;35.50;;;;;;6241977;27;80457;-67
2021/03/19 09:46:57;;;;;;;10.63;6.43;;;22.90;35.80;;;;;;6255933;27;82360;-67
2021/03/19 09:49:57;;;;;;;10.15;5.93;;;22.90;35.70;;;;;;6255756;27;90881;-68
2021/03/19 09:52:58;;;;;;;8.75;4.85;;;23.00;36.00;;;;;;6252026;27;80824;-68
2021/03/19 09:55:59;;;;;;;8.77;5.90;;;22.90;36.20;;;;;;6244167;27;80740;-66
2021/03/19 09:58:59;;;;;;;10.27;5.82;;;22.90;37.10;;;;;;6245671;27;81881;-68
2021/03/19 10:02:00;;;;;;;9.20;5.80;;;22.90;37.50;;;;;;6246056;27;82736;-66
2021/03/19 10:05:00;;;;;;;9.15;5.68;;;22.90;38.20;;;;;;6248815;27;80540;-68
2021/03/19 10:08:01;;;;;;;8.73;4.82;;;23.00;39.10;;;;;;6248028;27;80712;-68
2021/03/19 10:11:02;;;;;;;11.05;5.50;;;23.10;40.00;;;;;;6230151;28;81366;-67
2021/03/19 10:14:02;;;;;;;11.35;5.50;;;23.00;39.60;;;;;;6248899;27;81195;-67
2021/03/19 10:17:03;;;;;;;8.48;5.30;;;23.10;39.50;;;;;;6247833;27;81672;-69
2021/03/19 10:20:03;;;;;;;8.38;4.43;;;23.10;39.80;;;;;;6245655;28;80795;-66
2021/03/19 10:23:04;;;;;;;9.23;5.20;;;23.10;39.90;;;;;;6245550;27;80920;-69
2021/03/19 10:26:04;;;;;;;6.68;4.80;;;23.10;40.50;;;;;;6245036;27;81627;-68
2021/03/19 10:29:05;;;;;;;8.05;4.75;;;23.10;40.30;;;;;;6244983;27;80776;-69
2021/03/19 10:32:05;;;;;;;10.50;6.60;;;23.00;40.00;;;;;;6245583;27;80996;-68
2021/03/19 10:35:07;;;;;;;9.73;7.03;;;23.00;37.30;;;;;;6251531;27;80810;-68
2021/03/19 10:38:07;;;;;;;10.65;7.15;;;22.90;33.50;;;;;;6245233;28;80962;-68
2021/03/19 10:41:08;;;;;;;12.45;6.72;;;22.80;32.30;;;;;;6248116;28;84800;-67
2021/03/19 10:44:09;;;;;;;9.23;6.13;;;22.70;30.60;;;;;;6247432;28;81332;-67
2021/03/19 10:47:09;;;;;;;10.23;5.95;;;22.60;30.20;;;;;;6243808;28;80850;-68
2021/03/19 10:50:10;;;;;;;11.10;6.10;;;22.50;30.20;;;;;;6231994;28;80325;-67
2021/03/19 10:53:10;;;;;;;10.13;6.05;;;22.40;30.00;;;;;;6236580;28;80954;-67
2021/03/19 10:56:11;;;;;;;10.40;6.20;;;22.40;30.20;;;;;;6209987;28;83007;-67
2021/03/19 10:59:11;;;;;;;9.82;6.35;;;22.40;30.50;;;;;;6245717;28;81843;-67
2021/03/19 11:02:12;;;;;;;12.25;7.00;;;22.40;29.60;;;;;;6243535;28;80614;-67
2021/03/19 11:05:13;;;;;;;15.57;8.15;;;22.40;29.50;;;;;;6239101;28;81239;-67
2021/03/19 11:08:13;;;;;;;14.23;8.70;;;22.30;29.10;;;;;;6241090;28;86075;-67
2021/03/19 11:11:14;;;;;;;15.50;8.07;;;22.30;29.20;;;;;;6242594;28;80400;-67
2021/03/19 11:14:14;;;;;;;13.10;8.50;;;22.30;29.10;;;;;;6248089;28;80904;-69
2021/03/19 11:17:15;;;;;;;15.23;8.05;;;22.30;28.80;;;;;;6250050;28;81428;-69
2021/03/19 11:20:15;;;;;;;11.40;6.53;;;22.40;30.60;;;;;;6242056;28;80281;-71
2021/03/19 11:23:16;;;;;;;13.90;6.28;;;22.50;31.00;;;;;;6232378;28;81071;-69
2021/03/19 11:26:16;;;;;;;11.50;6.90;;;22.50;31.20;;;;;;6240092;28;81692;-68
2021/03/19 11:29:18;;;;;;;12.00;7.07;;;22.60;30.90;;;;;;6243836;28;81142;-69
2021/03/19 11:32:19;;;;;;;12.18;6.57;;;22.60;31.70;;;;;;6246758;28;80950;-68
2021/03/19 11:35:19;;;;;;;11.85;6.72;;;22.70;30.10;;;;;;6232536;28;80553;-69
2021/03/19 11:38:20;;;;;;;12.10;6.70;;;22.70;30.00;;;;;;6227292;28;82843;-67
2021/03/19 11:41:20;;;;;;;13.35;6.45;;;22.70;29.70;;;;;;6251837;28;81038;-69
2021/03/19 11:44:21;;;;;;;15.50;7.38;;;22.70;29.50;;;;;;6240802;28;82070;-68
2021/03/19 11:47:21;;;;;;;10.48;6.72;;;22.80;29.40;;;;;;6241272;27;82080;-67
2021/03/19 11:50:22;;;;;;;12.02;6.82;;;22.80;29.20;;;;;;6248303;28;80837;-69
2021/03/19 11:53:23;;;;;;;9.80;6.72;;;22.90;29.10;;;;;;6244359;28;81163;-67
2021/03/19 11:56:23;;;;;;;12.00;6.55;;;22.90;29.10;;;;;;6236943;28;81652;-68
2021/03/19 11:59:24;;;;;;;11.18;6.90;;;22.90;28.90;;;;;;6238897;28;80969;-65
2021/03/19 12:02:25;;;;;;;13.80;7.03;;;23.00;28.90;;;;;;6239792;28;80231;-67
2021/03/19 12:05:25;;;;;;;11.85;7.03;;;23.00;28.80;;;;;;6242490;28;80383;-68
2021/03/19 12:08:27;;;;;;;10.43;6.35;;;23.00;28.70;;;;;;6239742;28;81998;-66
2021/03/19 12:11:27;;;;;;;10.52;6.38;;;23.00;28.60;;;;;;6246201;27;80780;-67
2021/03/19 12:14:28;;;;;;;10.20;6.25;;;23.10;28.70;;;;;;6243763;27;80913;-66
2021/03/19 12:17:28;;;;;;;9.45;6.07;;;23.10;29.00;;;;;;6247585;27;80880;-66
2021/03/19 12:20:29;;;;;;;10.88;5.50;;;23.10;29.50;;;;;;6226060;27;80542;-67
2021/03/19 12:23:30;;;;;;;9.38;5.63;;;23.20;29.90;;;;;;6231488;27;81020;-66
2021/03/19 12:26:30;;;;;;;7.82;5.30;;;23.20;30.20;;;;;;6250049;27;81331;-67
2021/03/19 12:29:31;;;;;;;8.07;5.70;;;23.20;31.00;;;;;;6243341;27;81463;-66
2021/03/19 12:32:32;;;;;;;9.32;5.80;;;23.20;31.50;;;;;;6249266;27;80874;-67
2021/03/19 12:35:32;;;;;;;10.57;5.45;;;23.20;31.80;;;;;;6245712;27;80788;-66
2021/03/19 12:38:33;;;;;;;8.90;5.55;;;23.20;31.90;;;;;;6247615;27;81512;-67
2021/03/19 12:41:33;;;;;;;10.07;5.30;;;23.20;32.00;;;;;;6244188;27;81985;-66
2021/03/19 12:44:34;;;;;;;8.00;5.22;;;23.20;31.90;;;;;;6244881;27;81511;-67
2021/03/19 12:47:34;;;;;;;9.85;5.75;;;23.20;32.00;;;;;;6241338;27;80566;-67
2021/03/19 12:50:35;;;;;;;9.77;5.20;;;23.20;32.00;;;;;;6248610;27;81634;-67
2021/03/19 12:53:36;;;;;;;7.03;4.88;;;23.30;32.00;;;;;;6256386;27;80840;-66
2021/03/19 12:56:36;;;;;;;7.80;5.07;;;23.30;31.90;;;;;;6230752;27;81842;-67
2021/03/19 12:59:37;;;;;;;11.00;5.18;;;23.30;32.00;;;;;;6242459;27;81073;-68
2021/03/19 13:02:37;;;;;;;7.78;5.55;;;23.30;32.10;;;;;;6246298;27;82972;-67
2021/03/19 13:05:38;;;;;;;10.35;5.68;;;23.30;32.10;;;;;;6250955;27;80424;-66
2021/03/19 13:08:39;;;;;;;10.70;5.65;;;23.30;31.80;;;;;;6253613;27;81785;-68
2021/03/19 13:11:39;;;;;;;9.63;5.82;;;23.40;31.80;;;;;;6248802;27;82341;-68
2021/03/19 13:14:40;;;;;;;12.20;6.43;;;23.40;31.70;;;;;;6251177;27;81506;-68
2021/03/19 13:17:40;;;;;;;14.38;5.80;;;23.40;31.50;;;;;;6246540;27;81592;-68
2021/03/19 13:20:41;;;;;;;9.57;5.50;;;23.50;31.40;;;;;;6249727;27;80571;-68
2021/03/19 13:23:41;;;;;;;9.85;5.63;;;23.50;31.30;;;;;;6227421;27;83214;-67
2021/03/19 13:26:42;;;;;;;10.13;6.20;;;23.50;31.20;;;;;;6248892;27;80655;-68
2021/03/19 13:29:43;;;;;;;9.98;5.20;;;23.50;31.20;;;;;;6250770;27;81964;-66
2021/03/19 13:32:46;;;;;;;7.90;5.00;;;23.50;31.10;;;;;;6250621;27;80930;-67
2021/03/19 13:35:50;;;;;;;10.82;5.63;;;23.60;31.30;;;;;;6250823;27;80971;-68
2021/03/19 13:38:51;;;;;;;8.70;5.70;;;23.60;32.00;;;;;;6233023;27;83212;-68
2021/03/19 13:41:51;;;;;;;8.48;5.28;;;23.60;31.80;;;;;;6253166;27;81961;-68
2021/03/19 13:44:52;;;;;;;8.70;5.30;;;23.60;32.00;;;;;;6248948;27;80778;-69
2021/03/19 13:47:53;;;;;;;9.05;5.35;;;23.60;31.80;;;;;;6245220;27;83892;-68
2021/03/19 13:50:53;;;;;;;7.22;4.65;;;23.60;31.60;;;;;;6242202;27;80811;-68
2021/03/19 13:53:54;;;;;;;8.35;5.05;;;23.50;31.50;;;;;;6246583;27;81444;-67
2021/03/19 13:56:54;;;;;;;7.32;4.88;;;23.50;31.40;;;;;;6247228;27;80569;-67
2021/03/19 13:59:55;;;;;;;8.20;4.82;;;23.50;31.30;;;;;;6246383;28;80808;-68
2021/03/19 14:02:56;;;;;;;8.38;5.13;;;23.50;31.20;;;;;;6242571;27;82219;-65
2021/03/19 14:05:56;;;;;;;7.90;4.85;;;23.50;32.00;;;;;;6242459;28;80324;-66
2021/03/19 14:08:57;;;;;;;6.75;4.97;;;23.50;30.70;;;;;;6250699;28;81450;-67
2021/03/19 14:11:57;;;;;;;8.05;5.28;;;23.50;30.40;;;;;;6247259;28;80906;-72
2021/03/19 14:14:58;;;;;;;10.02;5.38;;;23.50;30.20;;;;;;6243853;28;81688;-69
2021/03/19 14:17:59;;;;;;;7.00;4.65;;;23.50;30.00;;;;;;6237660;28;81252;-68
2021/03/19 14:20:59;;;;;;;6.75;4.70;;;23.50;30.20;;;;;;6242148;28;81283;-67
2021/03/19 14:24:00;;;;;;;8.98;5.30;;;23.50;30.00;;;;;;6247740;28;80680;-64
2021/03/19 14:27:00;;;;;;;8.85;5.60;;;23.50;29.90;;;;;;6242483;28;81631;-64
2021/03/19 14:30:01;;;;;;;7.30;5.35;;;23.40;29.90;;;;;;6245484;27;83058;-69
2021/03/19 14:33:02;;;;;;;10.80;5.25;;;23.40;29.80;;;;;;6247540;27;80567;-70
2021/03/19 14:36:02;;;;;;;8.43;4.95;;;23.40;30.50;;;;;;6247058;27;80835;-68
2021/03/19 14:39:03;;;;;;;8.70;4.85;;;23.40;30.80;;;;;;6249960;27;85034;-67
2021/03/19 14:42:03;;;;;;;9.02;5.22;;;23.40;31.70;;;;;;6247615;27;81269;-67
2021/03/19 14:45:04;;;;;;;10.00;5.63;;;23.40;31.40;;;;;;6246893;27;80673;-69
2021/03/19 14:48:04;;;;;;;8.48;5.43;;;23.30;31.40;;;;;;6224627;28;80566;-67
2021/03/19 14:51:05;;;;;;;10.43;5.25;;;23.40;31.90;;;;;;6241850;27;82508;-66
2021/03/19 14:54:06;;;;;;;8.55;5.53;;;23.30;31.80;;;;;;6245775;27;81630;-68
2021/03/19 14:57:07;;;;;;;8.80;4.88;;;23.30;32.00;;;;;;6243155;28;80721;-68
2021/03/19 15:00:07;;;;;;;9.85;5.97;;;23.30;32.30;;;;;;6249058;27;80858;-70
2021/03/19 15:03:08;;;;;;;7.60;4.95;;;23.30;31.50;;;;;;6248705;28;80699;-69
2021/03/19 15:06:09;;;;;;;9.60;5.53;;;23.20;31.90;;;;;;6230838;28;83218;-69
2021/03/19 15:09:09;;;;;;;8.40;5.13;;;23.20;31.70;;;;;;6243492;28;80608;-68
2021/03/19 15:12:10;;;;;;;8.52;5.10;;;23.20;31.40;;;;;;6234590;28;80542;-68
2021/03/19 15:15:10;;;;;;;9.02;5.20;;;23.20;31.80;;;;;;6248667;28;80618;-68
2021/03/19 15:18:11;;;;;;;7.82;5.05;;;23.20;31.20;;;;;;6226883;28;81883;-68
2021/03/19 15:21:12;;;;;;;9.05;5.10;;;23.20;31.50;;;;;;6238101;28;80335;-70
2021/03/19 15:24:12;;;;;;;9.65;5.20;;;23.10;30.90;;;;;;6212277;27;81328;-67